createdAt,value
2022-11-25T00:13:55.152Z,1012.69
2022-11-25T00:28:57.027Z,1012.66
2022-11-25T00:43:57.625Z,1012.75
2022-11-25T00:58:58.395Z,1012.76
2022-11-25T01:14:01.692Z,1012.80
2022-11-25T01:29:04.106Z,1012.71
2022-11-25T01:44:03.748Z,1012.64
2022-11-25T01:59:05.581Z,1012.62
2022-11-25T02:14:07.478Z,1012.41
2022-11-25T02:29:08.444Z,1012.34
2022-11-25T02:44:09.039Z,1012.64
2022-11-25T02:59:09.684Z,1012.68
2022-11-25T03:14:09.276Z,1012.76
2022-11-25T03:29:11.201Z,1012.55
2022-11-25T03:44:11.790Z,1012.79
2022-11-25T03:59:14.229Z,1012.73
2022-11-25T04:14:14.913Z,1012.74
2022-11-25T04:29:15.529Z,1012.70
2022-11-25T04:44:17.387Z,1012.85
2022-11-25T04:59:17.540Z,1012.89
2022-11-25T05:14:18.176Z,1012.92
2022-11-25T05:29:20.806Z,1013.00
2022-11-25T05:44:23.210Z,1013.06
2022-11-25T05:59:25.373Z,1013.05
2022-11-25T06:14:27.272Z,1012.98
2022-11-25T06:29:28.625Z,1012.94
2022-11-25T06:44:29.942Z,1013.11
2022-11-25T06:59:31.353Z,1013.29
2022-11-25T07:14:35.325Z,1013.47
2022-11-25T07:30:18.814Z,1013.81
2022-11-25T07:44:45.154Z,1013.65
2022-11-25T07:59:46.651Z,1013.65
2022-11-25T08:14:48.784Z,1013.77
2022-11-25T08:29:49.607Z,1013.93
2022-11-25T08:44:50.598Z,1014.00
2022-11-25T08:59:51.150Z,1013.89
2022-11-25T09:14:53.613Z,1013.99
2022-11-25T09:29:55.405Z,1014.08
2022-11-25T09:44:57.678Z,1014.02
2022-11-25T09:59:58.939Z,1013.93
2022-11-25T10:14:59.450Z,1013.81
2022-11-25T10:30:00.875Z,1013.97
2022-11-25T10:45:02.763Z,1013.96
2022-11-25T11:00:04.656Z,1013.90
2022-11-25T11:15:04.795Z,1013.97
2022-11-25T11:30:05.475Z,1013.89
2022-11-25T11:45:06.969Z,1013.79
2022-11-25T12:00:08.777Z,1013.78
2022-11-25T12:15:10.363Z,1013.62
2022-11-25T12:30:11.886Z,1013.64
2022-11-25T12:45:16.426Z,1013.66
2022-11-25T13:00:46.053Z,1013.79
2022-11-25T13:15:22.609Z,1013.89
2022-11-25T13:30:25.597Z,1013.97
2022-11-25T13:45:27.928Z,1014.05
2022-11-25T14:00:29.690Z,1014.20
2022-11-25T14:15:31.371Z,1014.31
2022-11-25T14:30:34.511Z,1014.41
2022-11-25T14:45:34.884Z,1014.59
2022-11-25T15:00:35.535Z,1014.67
2022-11-25T15:15:36.470Z,1014.67
2022-11-25T15:30:39.051Z,1014.82
2022-11-25T15:45:41.913Z,1014.83
2022-11-25T16:00:44.141Z,1014.91
2022-11-25T16:15:45.458Z,1014.99
2022-11-25T16:30:48.154Z,1015.09
2022-11-25T16:45:49.987Z,1015.13
2022-11-25T17:00:50.797Z,1015.18
2022-11-25T17:15:52.698Z,1015.29
2022-11-25T17:30:55.133Z,1015.44
2022-11-25T17:45:58.168Z,1015.55
2022-11-25T18:00:59.972Z,1015.67
2022-11-25T18:16:00.468Z,1015.78
2022-11-25T18:31:02.225Z,1015.85
2022-11-25T18:46:04.016Z,1015.99
2022-11-25T19:01:05.447Z,1016.13
2022-11-25T19:16:06.007Z,1016.21
2022-11-25T19:31:08.126Z,1016.34
2022-11-25T19:46:09.879Z,1016.60
2022-11-25T20:01:12.650Z,1016.79
2022-11-25T20:16:14.487Z,1017.02
2022-11-25T20:31:16.416Z,1017.20
2022-11-25T20:46:20.053Z,1017.34
2022-11-25T21:01:19.946Z,1017.53
2022-11-25T21:16:21.369Z,1017.67
2022-11-25T21:31:22.838Z,1017.72
2022-11-25T21:46:24.053Z,1017.74
2022-11-25T22:01:25.391Z,1017.89
2022-11-25T22:16:27.355Z,1018.02
2022-11-25T22:31:29.229Z,1018.28
2022-11-25T22:46:31.234Z,1018.38
2022-11-25T23:01:31.887Z,1018.54
2022-11-25T23:16:34.317Z,1018.71
2022-11-25T23:31:36.737Z,1018.79
2022-11-25T23:46:38.548Z,1018.96
